Highland Haven, Texas
Current Conditions -  °F | °C
As of 2:55 AM on Saturday 22 Nov 2014 (Local Time) from KDZB Reporting Station
Drizzle Drizzle  
Wind Chill: 65°   Ceiling: 1100
Heat Index: 65°   Visibility: 7mi
Dew Point: 65°   Wind: 6mph
Humidity: 100%   Direction: 140°SE
Pressure: 30.01"   Gusts: NA
Location:  30.5925°N, 98.2219°W
Report Text: KDZB 220855Z AUTO 14005KT 7SM DZ OVC011 19/19 A3001 RMK AO2 LTG DSNT NW T01860186
Loading
Personal Weather Stations






























Interactive Weather Map New forecast layout! Learn more

10-Day Weather Forecast

Advertisements
Track Severe Weather on mobile